首页
METAR-TAF:

METAR-TAF

机场 :

Teterboro, 新泽西州, 美国

纬度: 40-51-32N, 经度: 074-03-24W, 海拔: 2米

当前天气观测

该预报发布于19分钟前的06:51 UTC
风速6节,风向西转西南
温度 27°C
湿度 62%
气压 1015 hPa
能見度: 16.1公里
散云层高于6000英尺

METAR: KTEB 170651Z 24006KT 10SM SCT060 27/19 A2997 RMK AO2 SLP147 T02720189

时间: 03:10 (07:10 UTC)

预报

该预报发布于1小时和34分钟前的05:36 UTC
预报有效从17日的 06点(UTC)到 18日的 12点(UTC)
风速5节,风向南转西南
能見度: 10公里
散云层高于15000英尺
多云层高于25000英尺
从 17日的 1600点(UTC)
风速10节,风向西南
能見度: 10公里
散云层高于15000英尺
多云层高于25000英尺
从 17日的 2200点(UTC)
风速8节,风向西转西南
能見度: 10公里
散云层高于2500英尺
多云层高于4000英尺
附近有阵雨
几率 30%
从 17日的 22点(UTC)到 18日的 03点(UTC)
能見度: 4.8公里
多云层高于2500英尺
多云层高于4000英尺, 积雨云.
雷暴, 雨
从 18日的 0300点(UTC)
风速4节,风向多变
能見度: 9.7公里
多云层高于2000英尺
阴天层高于4000英尺
小阵雨
从 18日的 0700点(UTC)
风速4节,风向东北
能見度: 8.0公里
阴天层高于1500英尺
小阵雨, 轻雾

TAF: KTEB 170536Z 1706/1812 20005KT P6SM SCT150 BKN250 FM171600 23010KT P6SM SCT150 BKN250 FM172200 24008KT P6SM VCSH SCT025 BKN040 PROB30 1722/1803 3SM TSRA BKN025 BKN040CB FM180300 VRB04KT 6SM -SHRA BKN020 OVC040 FM180700 05004KT 5SM -SHRA BR OVC015

超过4000个机场的气象观测和天气预报(METAR&TAF报告)。

可查询的气象台以黄色和红色小点在地图上表示。

将鼠标移到小点上方,可查看气象台名称。

然后点击查看天气观测和预报。

如需切换地图:点击带黑十字的绿色按钮放大地图;点击带横线的绿色按钮缩小地图;或者点击绿色箭头查看邻近地区的地图。


METAR-TAF: